sensor_id;sensor_type;location;lat;lon;timestamp;P1;durP1;ratioP1;P2;durP2;ratioP2
69588;SDS011;56792;50.644;17.984;2023-01-30T00:01:35;8.30;;;4.50;;
69588;SDS011;56792;50.644;17.984;2023-01-30T00:04:08;8.20;;;4.60;;
69588;SDS011;56792;50.644;17.984;2023-01-30T00:06:41;8.30;;;5.00;;
69588;SDS011;56792;50.644;17.984;2023-01-30T00:09:15;7.00;;;4.70;;
69588;SDS011;56792;50.644;17.984;2023-01-30T00:11:47;7.00;;;4.70;;
69588;SDS011;56792;50.644;17.984;2023-01-30T00:14:19;7.30;;;4.90;;
69588;SDS011;56792;50.644;17.984;2023-01-30T00:16:51;7.70;;;4.70;;
69588;SDS011;56792;50.644;17.984;2023-01-30T00:19:24;7.70;;;4.90;;
69588;SDS011;56792;50.644;17.984;2023-01-30T00:21:56;6.70;;;4.40;;
69588;SDS011;56792;50.644;17.984;2023-01-30T00:24:28;6.80;;;4.40;;
69588;SDS011;56792;50.644;17.984;2023-01-30T00:27:00;8.10;;;4.30;;
69588;SDS011;56792;50.644;17.984;2023-01-30T00:29:32;8.00;;;4.50;;
69588;SDS011;56792;50.644;17.984;2023-01-30T00:32:05;7.80;;;4.50;;
69588;SDS011;56792;50.644;17.984;2023-01-30T00:34:38;7.50;;;4.20;;
69588;SDS011;56792;50.644;17.984;2023-01-30T00:37:10;6.90;;;3.90;;
69588;SDS011;56792;50.644;17.984;2023-01-30T00:39:42;7.20;;;4.30;;
69588;SDS011;56792;50.644;17.984;2023-01-30T00:42:15;7.70;;;4.50;;
69588;SDS011;56792;50.644;17.984;2023-01-30T00:45:05;6.60;;;4.10;;
69588;SDS011;56792;50.644;17.984;2023-01-30T00:47:55;6.90;;;4.40;;
69588;SDS011;56792;50.644;17.984;2023-01-30T00:50:29;6.80;;;4.10;;
69588;SDS011;56792;50.644;17.984;2023-01-30T00:53:11;8.40;;;4.60;;
69588;SDS011;56792;50.644;17.984;2023-01-30T00:55:46;8.50;;;6.00;;
69588;SDS011;56792;50.644;17.984;2023-01-30T00:58:21;8.60;;;5.80;;
69588;SDS011;56792;50.644;17.984;2023-01-30T01:00:54;9.70;;;6.30;;
69588;SDS011;56792;50.644;17.984;2023-01-30T01:03:26;10.90;;;7.10;;
69588;SDS011;56792;50.644;17.984;2023-01-30T01:05:58;9.60;;;6.90;;
69588;SDS011;56792;50.644;17.984;2023-01-30T01:08:30;9.60;;;6.60;;
69588;SDS011;56792;50.644;17.984;2023-01-30T01:11:03;10.00;;;6.70;;
69588;SDS011;56792;50.644;17.984;2023-01-30T01:13:36;9.60;;;6.40;;
69588;SDS011;56792;50.644;17.984;2023-01-30T01:16:08;10.00;;;6.80;;
69588;SDS011;56792;50.644;17.984;2023-01-30T01:18:40;10.20;;;6.50;;
69588;SDS011;56792;50.644;17.984;2023-01-30T01:21:12;10.40;;;6.60;;
69588;SDS011;56792;50.644;17.984;2023-01-30T01:23:50;10.30;;;6.50;;
69588;SDS011;56792;50.644;17.984;2023-01-30T01:26:24;11.00;;;6.50;;
69588;SDS011;56792;50.644;17.984;2023-01-30T01:28:57;8.60;;;6.10;;
69588;SDS011;56792;50.644;17.984;2023-01-30T01:31:29;10.10;;;6.60;;
69588;SDS011;56792;50.644;17.984;2023-01-30T01:34:01;9.70;;;6.20;;
69588;SDS011;56792;50.644;17.984;2023-01-30T01:36:33;10.10;;;6.40;;
69588;SDS011;56792;50.644;17.984;2023-01-30T01:39:06;11.70;;;7.30;;
69588;SDS011;56792;50.644;17.984;2023-01-30T01:41:38;9.10;;;5.70;;
69588;SDS011;56792;50.644;17.984;2023-01-30T01:44:11;9.30;;;6.10;;
69588;SDS011;56792;50.644;17.984;2023-01-30T01:46:48;10.00;;;5.90;;
69588;SDS011;56792;50.644;17.984;2023-01-30T01:49:26;10.10;;;5.80;;
69588;SDS011;56792;50.644;17.984;2023-01-30T01:52:02;9.40;;;6.70;;
69588;SDS011;56792;50.644;17.984;2023-01-30T01:54:43;10.20;;;6.30;;
69588;SDS011;56792;50.644;17.984;2023-01-30T01:57:22;9.30;;;6.00;;
69588;SDS011;56792;50.644;17.984;2023-01-30T02:00:06;9.50;;;5.90;;
69588;SDS011;56792;50.644;17.984;2023-01-30T02:02:46;9.70;;;6.60;;
69588;SDS011;56792;50.644;17.984;2023-01-30T02:05:21;10.20;;;6.30;;
69588;SDS011;56792;50.644;17.984;2023-01-30T02:08:01;9.50;;;6.40;;
69588;SDS011;56792;50.644;17.984;2023-01-30T02:10:42;9.10;;;6.30;;
69588;SDS011;56792;50.644;17.984;2023-01-30T02:13:21;10.80;;;6.60;;
69588;SDS011;56792;50.644;17.984;2023-01-30T02:15:54;10.40;;;6.10;;
69588;SDS011;56792;50.644;17.984;2023-01-30T02:18:28;10.00;;;6.30;;
69588;SDS011;56792;50.644;17.984;2023-01-30T02:24:35;9.10;;;6.20;;
69588;SDS011;56792;50.644;17.984;2023-01-30T02:27:47;9.80;;;6.10;;
69588;SDS011;56792;50.644;17.984;2023-01-30T02:33:52;8.30;;;5.60;;
69588;SDS011;56792;50.644;17.984;2023-01-30T02:36:42;9.20;;;5.90;;
69588;SDS011;56792;50.644;17.984;2023-01-30T02:39:29;9.30;;;5.70;;
69588;SDS011;56792;50.644;17.984;2023-01-30T02:42:13;9.00;;;6.20;;
69588;SDS011;56792;50.644;17.984;2023-01-30T02:45:00;9.30;;;5.90;;
69588;SDS011;56792;50.644;17.984;2023-01-30T02:47:40;8.20;;;5.50;;
69588;SDS011;56792;50.644;17.984;2023-01-30T02:50:21;8.70;;;6.20;;
69588;SDS011;56792;50.644;17.984;2023-01-30T02:52:58;8.60;;;5.80;;
69588;SDS011;56792;50.644;17.984;2023-01-30T02:55:31;8.50;;;5.20;;
69588;SDS011;56792;50.644;17.984;2023-01-30T02:58:05;8.60;;;5.60;;
69588;SDS011;56792;50.644;17.984;2023-01-30T03:00:58;9.30;;;5.80;;
69588;SDS011;56792;50.644;17.984;2023-01-30T03:03:56;10.20;;;6.20;;
69588;SDS011;56792;50.644;17.984;2023-01-30T03:06:54;8.20;;;5.60;;
69588;SDS011;56792;50.644;17.984;2023-01-30T03:09:46;8.30;;;5.60;;
69588;SDS011;56792;50.644;17.984;2023-01-30T03:12:34;9.00;;;5.50;;
69588;SDS011;56792;50.644;17.984;2023-01-30T03:15:19;8.90;;;5.60;;
69588;SDS011;56792;50.644;17.984;2023-01-30T03:17:57;8.70;;;5.60;;
69588;SDS011;56792;50.644;17.984;2023-01-30T03:20:31;8.30;;;5.60;;
69588;SDS011;56792;50.644;17.984;2023-01-30T03:23:08;8.00;;;5.60;;
69588;SDS011;56792;50.644;17.984;2023-01-30T03:25:43;8.50;;;5.60;;
69588;SDS011;56792;50.644;17.984;2023-01-30T03:28:19;7.80;;;5.50;;
69588;SDS011;56792;50.644;17.984;2023-01-30T03:30:51;8.20;;;5.20;;
69588;SDS011;56792;50.644;17.984;2023-01-30T03:33:23;8.00;;;5.30;;
69588;SDS011;56792;50.644;17.984;2023-01-30T03:35:56;8.90;;;5.90;;
69588;SDS011;56792;50.644;17.984;2023-01-30T03:38:28;8.00;;;5.30;;
69588;SDS011;56792;50.644;17.984;2023-01-30T03:41:01;7.60;;;5.50;;
69588;SDS011;56792;50.644;17.984;2023-01-30T03:43:34;8.70;;;5.70;;
69588;SDS011;56792;50.644;17.984;2023-01-30T03:46:07;8.30;;;5.40;;
69588;SDS011;56792;50.644;17.984;2023-01-30T03:48:40;8.20;;;5.40;;
69588;SDS011;56792;50.644;17.984;2023-01-30T03:51:14;7.90;;;5.10;;
69588;SDS011;56792;50.644;17.984;2023-01-30T03:53:46;7.90;;;5.40;;
69588;SDS011;56792;50.644;17.984;2023-01-30T03:56:19;8.80;;;5.40;;
69588;SDS011;56792;50.644;17.984;2023-01-30T03:58:51;8.90;;;5.20;;
69588;SDS011;56792;50.644;17.984;2023-01-30T04:01:30;9.30;;;6.00;;
69588;SDS011;56792;50.644;17.984;2023-01-30T04:04:02;9.00;;;5.40;;
69588;SDS011;56792;50.644;17.984;2023-01-30T04:06:34;9.40;;;5.50;;
69588;SDS011;56792;50.644;17.984;2023-01-30T04:09:06;8.20;;;5.60;;
69588;SDS011;56792;50.644;17.984;2023-01-30T04:11:42;7.80;;;5.30;;
69588;SDS011;56792;50.644;17.984;2023-01-30T04:14:15;7.90;;;5.30;;
69588;SDS011;56792;50.644;17.984;2023-01-30T04:17:10;8.30;;;5.40;;
69588;SDS011;56792;50.644;17.984;2023-01-30T04:19:48;8.30;;;5.60;;
69588;SDS011;56792;50.644;17.984;2023-01-30T04:22:21;8.40;;;5.50;;
69588;SDS011;56792;50.644;17.984;2023-01-30T04:24:53;7.80;;;5.00;;
69588;SDS011;56792;50.644;17.984;2023-01-30T04:27:26;8.20;;;5.10;;
69588;SDS011;56792;50.644;17.984;2023-01-30T04:30:11;9.10;;;5.60;;
69588;SDS011;56792;50.644;17.984;2023-01-30T04:32:44;8.60;;;5.70;;
69588;SDS011;56792;50.644;17.984;2023-01-30T04:35:16;8.30;;;5.80;;
69588;SDS011;56792;50.644;17.984;2023-01-30T04:37:49;8.40;;;5.50;;
69588;SDS011;56792;50.644;17.984;2023-01-30T04:40:21;8.90;;;5.50;;
69588;SDS011;56792;50.644;17.984;2023-01-30T04:42:54;11.00;;;5.90;;
69588;SDS011;56792;50.644;17.984;2023-01-30T04:45:45;9.50;;;5.10;;
69588;SDS011;56792;50.644;17.984;2023-01-30T04:48:20;8.00;;;5.20;;
69588;SDS011;56792;50.644;17.984;2023-01-30T04:50:55;8.80;;;5.10;;
69588;SDS011;56792;50.644;17.984;2023-01-30T04:53:27;9.20;;;5.50;;
69588;SDS011;56792;50.644;17.984;2023-01-30T04:55:59;10.00;;;5.70;;
69588;SDS011;56792;50.644;17.984;2023-01-30T04:58:32;8.00;;;5.40;;
69588;SDS011;56792;50.644;17.984;2023-01-30T05:01:22;9.00;;;5.70;;
69588;SDS011;56792;50.644;17.984;2023-01-30T05:03:59;8.50;;;5.40;;
69588;SDS011;56792;50.644;17.984;2023-01-30T05:06:32;8.60;;;5.40;;
69588;SDS011;56792;50.644;17.984;2023-01-30T05:09:05;8.60;;;5.10;;
69588;SDS011;56792;50.644;17.984;2023-01-30T05:11:38;9.00;;;5.50;;
69588;SDS011;56792;50.644;17.984;2023-01-30T05:14:10;7.90;;;5.10;;
69588;SDS011;56792;50.644;17.984;2023-01-30T05:16:42;9.50;;;5.40;;
69588;SDS011;56792;50.644;17.984;2023-01-30T05:19:14;8.20;;;5.40;;
69588;SDS011;56792;50.644;17.984;2023-01-30T05:21:46;7.70;;;5.10;;
69588;SDS011;56792;50.644;17.984;2023-01-30T05:24:19;9.50;;;5.70;;
69588;SDS011;56792;50.644;17.984;2023-01-30T05:26:51;7.90;;;5.40;;
69588;SDS011;56792;50.644;17.984;2023-01-30T05:29:24;7.80;;;4.90;;
69588;SDS011;56792;50.644;17.984;2023-01-30T05:31:56;8.70;;;5.30;;
69588;SDS011;56792;50.644;17.984;2023-01-30T05:34:29;7.60;;;5.20;;
69588;SDS011;56792;50.644;17.984;2023-01-30T05:37:01;8.50;;;5.60;;
69588;SDS011;56792;50.644;17.984;2023-01-30T05:39:33;8.60;;;5.70;;
69588;SDS011;56792;50.644;17.984;2023-01-30T05:42:05;8.40;;;4.70;;
69588;SDS011;56792;50.644;17.984;2023-01-30T05:44:38;7.30;;;4.70;;
69588;SDS011;56792;50.644;17.984;2023-01-30T05:47:10;8.30;;;4.80;;
69588;SDS011;56792;50.644;17.984;2023-01-30T05:49:43;7.80;;;5.30;;
69588;SDS011;56792;50.644;17.984;2023-01-30T05:52:16;7.90;;;4.60;;
69588;SDS011;56792;50.644;17.984;2023-01-30T05:54:48;7.70;;;4.30;;
69588;SDS011;56792;50.644;17.984;2023-01-30T05:57:20;8.10;;;4.80;;
69588;SDS011;56792;50.644;17.984;2023-01-30T05:59:52;9.10;;;5.30;;
69588;SDS011;56792;50.644;17.984;2023-01-30T06:02:25;7.40;;;4.80;;
69588;SDS011;56792;50.644;17.984;2023-01-30T06:04:59;6.70;;;4.80;;
69588;SDS011;56792;50.644;17.984;2023-01-30T06:07:31;7.30;;;5.00;;
69588;SDS011;56792;50.644;17.984;2023-01-30T06:10:04;6.60;;;4.60;;
69588;SDS011;56792;50.644;17.984;2023-01-30T06:12:38;8.50;;;5.00;;
69588;SDS011;56792;50.644;17.984;2023-01-30T06:15:12;7.50;;;5.00;;
69588;SDS011;56792;50.644;17.984;2023-01-30T06:17:45;7.20;;;4.30;;
69588;SDS011;56792;50.644;17.984;2023-01-30T06:20:18;7.30;;;5.10;;
69588;SDS011;56792;50.644;17.984;2023-01-30T06:22:50;7.20;;;4.40;;
69588;SDS011;56792;50.644;17.984;2023-01-30T06:25:22;7.90;;;5.10;;
69588;SDS011;56792;50.644;17.984;2023-01-30T06:27:55;9.00;;;4.80;;
69588;SDS011;56792;50.644;17.984;2023-01-30T06:30:27;8.10;;;4.90;;
69588;SDS011;56792;50.644;17.984;2023-01-30T06:32:59;6.90;;;4.80;;
69588;SDS011;56792;50.644;17.984;2023-01-30T06:35:32;7.70;;;4.40;;
69588;SDS011;56792;50.644;17.984;2023-01-30T06:38:06;7.80;;;4.80;;
69588;SDS011;56792;50.644;17.984;2023-01-30T06:40:42;8.20;;;5.00;;
69588;SDS011;56792;50.644;17.984;2023-01-30T06:43:16;8.40;;;5.00;;
69588;SDS011;56792;50.644;17.984;2023-01-30T06:45:49;7.70;;;4.80;;
69588;SDS011;56792;50.644;17.984;2023-01-30T06:48:21;7.50;;;4.30;;
69588;SDS011;56792;50.644;17.984;2023-01-30T06:50:53;8.20;;;4.90;;
69588;SDS011;56792;50.644;17.984;2023-01-30T06:53:26;6.80;;;4.60;;
69588;SDS011;56792;50.644;17.984;2023-01-30T06:55:59;8.30;;;5.10;;
69588;SDS011;56792;50.644;17.984;2023-01-30T06:58:32;8.10;;;4.80;;
69588;SDS011;56792;50.644;17.984;2023-01-30T07:01:04;7.60;;;4.80;;
69588;SDS011;56792;50.644;17.984;2023-01-30T07:03:37;7.80;;;4.90;;
69588;SDS011;56792;50.644;17.984;2023-01-30T07:06:10;7.10;;;4.90;;
69588;SDS011;56792;50.644;17.984;2023-01-30T07:08:42;7.80;;;4.80;;
69588;SDS011;56792;50.644;17.984;2023-01-30T07:11:15;7.70;;;4.30;;
69588;SDS011;56792;50.644;17.984;2023-01-30T07:13:48;6.90;;;4.40;;
69588;SDS011;56792;50.644;17.984;2023-01-30T07:16:21;6.60;;;4.30;;
69588;SDS011;56792;50.644;17.984;2023-01-30T07:18:57;7.10;;;4.40;;
69588;SDS011;56792;50.644;17.984;2023-01-30T07:21:30;6.10;;;4.50;;
69588;SDS011;56792;50.644;17.984;2023-01-30T07:24:03;6.30;;;4.10;;
69588;SDS011;56792;50.644;17.984;2023-01-30T07:26:37;5.60;;;3.90;;
69588;SDS011;56792;50.644;17.984;2023-01-30T07:29:10;6.10;;;3.70;;
69588;SDS011;56792;50.644;17.984;2023-01-30T07:31:44;7.60;;;4.20;;
69588;SDS011;56792;50.644;17.984;2023-01-30T07:34:18;5.90;;;3.70;;
69588;SDS011;56792;50.644;17.984;2023-01-30T07:36:52;6.90;;;4.00;;
69588;SDS011;56792;50.644;17.984;2023-01-30T07:39:25;5.90;;;3.50;;
69588;SDS011;56792;50.644;17.984;2023-01-30T07:42:00;5.90;;;3.40;;
69588;SDS011;56792;50.644;17.984;2023-01-30T07:44:33;6.80;;;4.30;;
69588;SDS011;56792;50.644;17.984;2023-01-30T07:47:05;6.30;;;3.50;;
69588;SDS011;56792;50.644;17.984;2023-01-30T07:49:37;5.40;;;3.30;;
69588;SDS011;56792;50.644;17.984;2023-01-30T07:52:10;5.10;;;3.30;;
69588;SDS011;56792;50.644;17.984;2023-01-30T07:54:42;5.00;;;3.50;;
69588;SDS011;56792;50.644;17.984;2023-01-30T07:57:15;5.60;;;3.00;;
69588;SDS011;56792;50.644;17.984;2023-01-30T07:59:47;5.40;;;3.40;;
69588;SDS011;56792;50.644;17.984;2023-01-30T08:02:19;6.40;;;3.50;;
69588;SDS011;56792;50.644;17.984;2023-01-30T08:04:51;5.20;;;2.80;;
69588;SDS011;56792;50.644;17.984;2023-01-30T08:07:24;4.80;;;3.00;;
69588;SDS011;56792;50.644;17.984;2023-01-30T08:09:56;5.60;;;3.30;;
69588;SDS011;56792;50.644;17.984;2023-01-30T08:12:28;6.40;;;3.40;;
69588;SDS011;56792;50.644;17.984;2023-01-30T08:15:01;5.10;;;3.00;;
69588;SDS011;56792;50.644;17.984;2023-01-30T08:17:33;6.30;;;3.40;;
69588;SDS011;56792;50.644;17.984;2023-01-30T08:20:08;5.40;;;2.90;;
69588;SDS011;56792;50.644;17.984;2023-01-30T08:22:44;4.80;;;2.90;;
69588;SDS011;56792;50.644;17.984;2023-01-30T08:25:16;5.30;;;3.00;;
69588;SDS011;56792;50.644;17.984;2023-01-30T08:27:49;4.90;;;3.10;;
69588;SDS011;56792;50.644;17.984;2023-01-30T08:30:22;5.30;;;2.80;;
69588;SDS011;56792;50.644;17.984;2023-01-30T08:32:55;5.70;;;3.00;;
69588;SDS011;56792;50.644;17.984;2023-01-30T08:35:27;5.50;;;3.30;;
69588;SDS011;56792;50.644;17.984;2023-01-30T08:37:59;5.70;;;2.90;;
69588;SDS011;56792;50.644;17.984;2023-01-30T08:40:35;5.00;;;2.90;;
69588;SDS011;56792;50.644;17.984;2023-01-30T08:43:07;5.50;;;2.90;;
69588;SDS011;56792;50.644;17.984;2023-01-30T08:45:40;5.00;;;3.10;;
69588;SDS011;56792;50.644;17.984;2023-01-30T08:48:12;6.30;;;3.00;;
69588;SDS011;56792;50.644;17.984;2023-01-30T08:50:44;5.70;;;3.00;;
69588;SDS011;56792;50.644;17.984;2023-01-30T08:53:16;4.90;;;2.70;;
69588;SDS011;56792;50.644;17.984;2023-01-30T08:55:50;5.40;;;2.80;;
69588;SDS011;56792;50.644;17.984;2023-01-30T08:58:23;5.10;;;2.90;;
69588;SDS011;56792;50.644;17.984;2023-01-30T09:00:55;5.40;;;2.90;;
69588;SDS011;56792;50.644;17.984;2023-01-30T09:03:27;5.00;;;2.80;;
69588;SDS011;56792;50.644;17.984;2023-01-30T09:06:00;5.10;;;3.00;;
69588;SDS011;56792;50.644;17.984;2023-01-30T09:08:32;5.40;;;2.70;;
69588;SDS011;56792;50.644;17.984;2023-01-30T09:11:06;5.00;;;2.80;;
69588;SDS011;56792;50.644;17.984;2023-01-30T09:13:40;5.40;;;3.10;;
69588;SDS011;56792;50.644;17.984;2023-01-30T09:16:12;4.80;;;2.90;;
69588;SDS011;56792;50.644;17.984;2023-01-30T09:18:45;6.60;;;3.00;;
69588;SDS011;56792;50.644;17.984;2023-01-30T09:21:17;5.00;;;3.10;;
69588;SDS011;56792;50.644;17.984;2023-01-30T09:23:49;6.10;;;3.10;;
69588;SDS011;56792;50.644;17.984;2023-01-30T09:26:26;4.90;;;3.30;;
69588;SDS011;56792;50.644;17.984;2023-01-30T09:28:58;5.90;;;3.20;;
69588;SDS011;56792;50.644;17.984;2023-01-30T09:31:30;5.20;;;3.50;;
69588;SDS011;56792;50.644;17.984;2023-01-30T09:34:02;7.30;;;3.80;;
69588;SDS011;56792;50.644;17.984;2023-01-30T09:36:35;6.20;;;3.90;;
69588;SDS011;56792;50.644;17.984;2023-01-30T09:39:07;6.90;;;3.90;;
69588;SDS011;56792;50.644;17.984;2023-01-30T09:42:02;6.60;;;3.80;;
69588;SDS011;56792;50.644;17.984;2023-01-30T09:48:09;6.30;;;3.80;;
69588;SDS011;56792;50.644;17.984;2023-01-30T09:51:09;7.40;;;4.40;;
69588;SDS011;56792;50.644;17.984;2023-01-30T09:54:08;7.00;;;4.30;;
69588;SDS011;56792;50.644;17.984;2023-01-30T09:57:07;7.50;;;4.20;;
69588;SDS011;56792;50.644;17.984;2023-01-30T09:59:50;6.60;;;4.20;;
69588;SDS011;56792;50.644;17.984;2023-01-30T10:02:32;6.50;;;4.40;;
69588;SDS011;56792;50.644;17.984;2023-01-30T10:05:10;7.20;;;4.40;;
69588;SDS011;56792;50.644;17.984;2023-01-30T10:08:10;7.50;;;4.30;;
69588;SDS011;56792;50.644;17.984;2023-01-30T10:11:03;6.60;;;4.20;;
69588;SDS011;56792;50.644;17.984;2023-01-30T10:16:54;7.60;;;5.00;;
69588;SDS011;56792;50.644;17.984;2023-01-30T10:19:46;9.10;;;4.90;;
69588;SDS011;56792;50.644;17.984;2023-01-30T10:22:37;10.40;;;5.90;;
69588;SDS011;56792;50.644;17.984;2023-01-30T10:25:25;10.10;;;5.80;;
69588;SDS011;56792;50.644;17.984;2023-01-30T10:28:05;11.10;;;6.40;;
69588;SDS011;56792;50.644;17.984;2023-01-30T10:30:41;12.00;;;7.40;;
69588;SDS011;56792;50.644;17.984;2023-01-30T10:33:19;11.50;;;6.60;;
69588;SDS011;56792;50.644;17.984;2023-01-30T10:36:00;11.00;;;7.10;;
69588;SDS011;56792;50.644;17.984;2023-01-30T10:38:41;11.40;;;6.80;;
69588;SDS011;56792;50.644;17.984;2023-01-30T10:41:23;10.20;;;6.50;;
69588;SDS011;56792;50.644;17.984;2023-01-30T10:44:03;10.20;;;6.10;;
69588;SDS011;56792;50.644;17.984;2023-01-30T10:46:53;12.30;;;6.80;;
69588;SDS011;56792;50.644;17.984;2023-01-30T10:49:40;10.70;;;6.40;;
69588;SDS011;56792;50.644;17.984;2023-01-30T10:52:34;10.90;;;5.80;;
69588;SDS011;56792;50.644;17.984;2023-01-30T10:55:18;10.10;;;5.70;;
69588;SDS011;56792;50.644;17.984;2023-01-30T10:58:03;11.00;;;6.00;;
69588;SDS011;56792;50.644;17.984;2023-01-30T11:00:44;9.60;;;5.90;;
69588;SDS011;56792;50.644;17.984;2023-01-30T11:03:27;10.00;;;6.00;;
69588;SDS011;56792;50.644;17.984;2023-01-30T11:06:12;10.20;;;6.40;;
69588;SDS011;56792;50.644;17.984;2023-01-30T11:08:47;9.80;;;5.60;;
69588;SDS011;56792;50.644;17.984;2023-01-30T11:11:29;9.00;;;5.60;;
69588;SDS011;56792;50.644;17.984;2023-01-30T11:14:07;9.80;;;5.40;;
69588;SDS011;56792;50.644;17.984;2023-01-30T11:16:45;9.40;;;5.90;;
69588;SDS011;56792;50.644;17.984;2023-01-30T11:19:21;8.90;;;5.40;;
69588;SDS011;56792;50.644;17.984;2023-01-30T11:22:01;7.70;;;4.70;;
69588;SDS011;56792;50.644;17.984;2023-01-30T11:24:41;8.00;;;5.00;;
69588;SDS011;56792;50.644;17.984;2023-01-30T11:27:19;8.00;;;4.80;;
69588;SDS011;56792;50.644;17.984;2023-01-30T11:30:05;8.30;;;5.10;;
69588;SDS011;56792;50.644;17.984;2023-01-30T11:32:43;7.80;;;4.40;;
69588;SDS011;56792;50.644;17.984;2023-01-30T11:35:27;7.20;;;5.00;;
69588;SDS011;56792;50.644;17.984;2023-01-30T11:38:19;8.30;;;4.30;;
69588;SDS011;56792;50.644;17.984;2023-01-30T11:41:03;7.40;;;4.20;;
69588;SDS011;56792;50.644;17.984;2023-01-30T11:43:47;7.30;;;4.60;;
69588;SDS011;56792;50.644;17.984;2023-01-30T11:46:20;7.30;;;4.80;;
69588;SDS011;56792;50.644;17.984;2023-01-30T11:48:57;6.90;;;4.00;;
69588;SDS011;56792;50.644;17.984;2023-01-30T11:51:33;9.50;;;5.00;;
69588;SDS011;56792;50.644;17.984;2023-01-30T11:54:10;7.60;;;4.30;;
69588;SDS011;56792;50.644;17.984;2023-01-30T11:56:48;7.90;;;4.50;;
69588;SDS011;56792;50.644;17.984;2023-01-30T11:59:25;8.20;;;4.80;;
69588;SDS011;56792;50.644;17.984;2023-01-30T12:02:15;7.60;;;4.80;;
69588;SDS011;56792;50.644;17.984;2023-01-30T12:04:55;8.70;;;4.50;;
69588;SDS011;56792;50.644;17.984;2023-01-30T12:07:33;6.80;;;4.50;;
69588;SDS011;56792;50.644;17.984;2023-01-30T12:10:24;12.20;;;4.50;;
69588;SDS011;56792;50.644;17.984;2023-01-30T12:13:01;7.70;;;4.40;;
69588;SDS011;56792;50.644;17.984;2023-01-30T12:15:44;7.30;;;4.10;;
69588;SDS011;56792;50.644;17.984;2023-01-30T12:18:22;7.70;;;4.60;;
69588;SDS011;56792;50.644;17.984;2023-01-30T12:21:00;7.80;;;4.60;;
69588;SDS011;56792;50.644;17.984;2023-01-30T12:23:42;7.80;;;4.60;;
69588;SDS011;56792;50.644;17.984;2023-01-30T12:26:21;6.80;;;4.50;;
69588;SDS011;56792;50.644;17.984;2023-01-30T12:29:02;7.60;;;4.10;;
69588;SDS011;56792;50.644;17.984;2023-01-30T12:31:47;7.00;;;4.10;;
69588;SDS011;56792;50.644;17.984;2023-01-30T12:34:26;6.40;;;3.80;;
69588;SDS011;56792;50.644;17.984;2023-01-30T12:37:07;7.70;;;4.10;;
69588;SDS011;56792;50.644;17.984;2023-01-30T12:40:00;6.40;;;4.00;;
69588;SDS011;56792;50.644;17.984;2023-01-30T12:42:58;7.00;;;4.00;;
69588;SDS011;56792;50.644;17.984;2023-01-30T12:45:57;6.80;;;4.10;;
69588;SDS011;56792;50.644;17.984;2023-01-30T12:49:07;8.50;;;3.80;;
69588;SDS011;56792;50.644;17.984;2023-01-30T12:52:03;6.00;;;3.60;;
69588;SDS011;56792;50.644;17.984;2023-01-30T12:54:55;7.10;;;3.70;;
69588;SDS011;56792;50.644;17.984;2023-01-30T12:57:34;6.60;;;3.90;;
69588;SDS011;56792;50.644;17.984;2023-01-30T13:00:26;6.50;;;3.50;;
69588;SDS011;56792;50.644;17.984;2023-01-30T13:03:21;6.00;;;3.20;;
69588;SDS011;56792;50.644;17.984;2023-01-30T13:06:09;7.80;;;3.80;;
69588;SDS011;56792;50.644;17.984;2023-01-30T13:09:00;7.20;;;4.20;;
69588;SDS011;56792;50.644;17.984;2023-01-30T13:11:52;6.00;;;3.20;;
69588;SDS011;56792;50.644;17.984;2023-01-30T13:14:38;6.00;;;3.30;;
69588;SDS011;56792;50.644;17.984;2023-01-30T13:17:25;7.30;;;3.50;;
69588;SDS011;56792;50.644;17.984;2023-01-30T13:20:22;5.70;;;3.00;;
69588;SDS011;56792;50.644;17.984;2023-01-30T13:23:14;5.10;;;2.90;;
69588;SDS011;56792;50.644;17.984;2023-01-30T13:25:55;5.40;;;2.90;;
69588;SDS011;56792;50.644;17.984;2023-01-30T13:28:35;6.00;;;3.30;;
69588;SDS011;56792;50.644;17.984;2023-01-30T13:31:13;6.10;;;3.60;;
69588;SDS011;56792;50.644;17.984;2023-01-30T13:33:49;6.50;;;3.80;;
69588;SDS011;56792;50.644;17.984;2023-01-30T13:36:30;6.30;;;3.40;;
69588;SDS011;56792;50.644;17.984;2023-01-30T13:39:13;5.30;;;3.10;;
69588;SDS011;56792;50.644;17.984;2023-01-30T13:41:56;6.00;;;3.60;;
69588;SDS011;56792;50.644;17.984;2023-01-30T13:44:30;5.30;;;3.10;;
69588;SDS011;56792;50.644;17.984;2023-01-30T13:47:15;5.90;;;3.10;;
69588;SDS011;56792;50.644;17.984;2023-01-30T13:50:02;6.30;;;3.10;;
69588;SDS011;56792;50.644;17.984;2023-01-30T13:52:52;5.90;;;3.30;;
69588;SDS011;56792;50.644;17.984;2023-01-30T13:55:31;6.00;;;3.00;;
69588;SDS011;56792;50.644;17.984;2023-01-30T13:58:16;5.90;;;2.90;;
69588;SDS011;56792;50.644;17.984;2023-01-30T14:01:03;5.40;;;3.00;;
69588;SDS011;56792;50.644;17.984;2023-01-30T14:03:35;5.90;;;3.00;;
69588;SDS011;56792;50.644;17.984;2023-01-30T14:06:31;5.70;;;2.80;;
69588;SDS011;56792;50.644;17.984;2023-01-30T14:09:19;5.30;;;2.90;;
69588;SDS011;56792;50.644;17.984;2023-01-30T14:12:04;4.90;;;2.50;;
69588;SDS011;56792;50.644;17.984;2023-01-30T14:14:59;6.30;;;3.20;;
69588;SDS011;56792;50.644;17.984;2023-01-30T14:17:35;5.60;;;3.30;;
69588;SDS011;56792;50.644;17.984;2023-01-30T14:20:15;5.30;;;2.80;;
69588;SDS011;56792;50.644;17.984;2023-01-30T14:22:54;4.70;;;2.60;;
69588;SDS011;56792;50.644;17.984;2023-01-30T14:25:46;4.70;;;2.40;;
69588;SDS011;56792;50.644;17.984;2023-01-30T14:28:48;5.90;;;2.90;;
69588;SDS011;56792;50.644;17.984;2023-01-30T14:31:51;5.10;;;2.40;;
69588;SDS011;56792;50.644;17.984;2023-01-30T14:34:40;4.90;;;3.00;;
69588;SDS011;56792;50.644;17.984;2023-01-30T14:40:41;4.70;;;2.40;;
69588;SDS011;56792;50.644;17.984;2023-01-30T14:43:47;4.60;;;2.50;;
69588;SDS011;56792;50.644;17.984;2023-01-30T14:46:44;5.60;;;3.00;;
69588;SDS011;56792;50.644;17.984;2023-01-30T14:49:31;5.70;;;2.70;;
69588;SDS011;56792;50.644;17.984;2023-01-30T14:52:16;4.70;;;2.50;;
69588;SDS011;56792;50.644;17.984;2023-01-30T14:55:03;4.40;;;2.50;;
69588;SDS011;56792;50.644;17.984;2023-01-30T14:57:54;5.80;;;2.90;;
69588;SDS011;56792;50.644;17.984;2023-01-30T15:00:30;5.10;;;3.10;;
69588;SDS011;56792;50.644;17.984;2023-01-30T15:03:15;4.50;;;2.40;;
69588;SDS011;56792;50.644;17.984;2023-01-30T15:06:07;4.80;;;2.70;;
69588;SDS011;56792;50.644;17.984;2023-01-30T15:08:42;4.60;;;2.50;;
69588;SDS011;56792;50.644;17.984;2023-01-30T15:11:20;5.00;;;2.70;;
69588;SDS011;56792;50.644;17.984;2023-01-30T15:14:07;6.70;;;3.00;;
69588;SDS011;56792;50.644;17.984;2023-01-30T15:16:59;5.40;;;3.20;;
69588;SDS011;56792;50.644;17.984;2023-01-30T15:20:29;6.20;;;3.00;;
69588;SDS011;56792;50.644;17.984;2023-01-30T15:23:30;5.70;;;2.80;;
69588;SDS011;56792;50.644;17.984;2023-01-30T15:26:28;7.70;;;3.60;;
69588;SDS011;56792;50.644;17.984;2023-01-30T15:29:28;6.90;;;3.80;;
69588;SDS011;56792;50.644;17.984;2023-01-30T15:32:19;7.50;;;3.80;;
69588;SDS011;56792;50.644;17.984;2023-01-30T15:34:55;7.30;;;3.80;;
69588;SDS011;56792;50.644;17.984;2023-01-30T15:37:35;5.70;;;3.10;;
69588;SDS011;56792;50.644;17.984;2023-01-30T15:40:26;6.00;;;3.70;;
69588;SDS011;56792;50.644;17.984;2023-01-30T15:43:15;6.60;;;3.80;;
69588;SDS011;56792;50.644;17.984;2023-01-30T15:46:11;6.00;;;3.40;;
69588;SDS011;56792;50.644;17.984;2023-01-30T15:48:59;6.80;;;3.20;;
69588;SDS011;56792;50.644;17.984;2023-01-30T15:52:00;5.90;;;3.40;;
69588;SDS011;56792;50.644;17.984;2023-01-30T15:54:35;5.50;;;3.40;;
69588;SDS011;56792;50.644;17.984;2023-01-30T15:57:13;6.10;;;3.40;;
69588;SDS011;56792;50.644;17.984;2023-01-30T15:59:53;6.10;;;3.40;;